createdAt,value
2022-11-10T00:02:24.693Z,8.80
2022-11-10T00:07:30.649Z,9.00
2022-11-10T00:12:36.819Z,9.00
2022-11-10T00:17:42.386Z,8.80
2022-11-10T00:22:47.569Z,8.80
2022-11-10T00:27:52.653Z,8.80
2022-11-10T00:32:59.820Z,8.90
2022-11-10T00:38:04.782Z,8.80
2022-11-10T00:43:09.868Z,8.80
2022-11-10T00:48:15.022Z,8.70
2022-11-10T00:53:21.359Z,8.70
2022-11-10T00:58:27.144Z,8.70
2022-11-10T01:03:33.159Z,8.60
2022-11-10T01:08:39.738Z,8.60
2022-11-10T01:13:45.850Z,8.70
2022-11-10T01:18:55.796Z,8.70
2022-11-10T01:24:04.049Z,8.80
2022-11-10T01:29:09.751Z,8.90
2022-11-10T01:34:15.358Z,8.90
2022-11-10T01:39:20.840Z,9.00
2022-11-10T01:44:27.592Z,9.00
2022-11-10T01:49:35.251Z,9.10
2022-11-10T01:54:47.470Z,9.00
2022-11-10T01:59:52.518Z,9.10
2022-11-10T02:04:57.540Z,9.00
2022-11-10T02:10:04.753Z,9.10
2022-11-10T02:15:12.358Z,9.00
2022-11-10T02:20:20.509Z,8.90
2022-11-10T02:25:28.909Z,8.80
2022-11-10T02:30:33.836Z,8.90
2022-11-10T02:35:38.888Z,8.90
2022-11-10T02:40:44.111Z,8.70
2022-11-10T02:45:49.111Z,8.80
2022-11-10T02:50:54.222Z,8.70
2022-11-10T02:55:59.249Z,8.50
2022-11-10T03:01:07.670Z,8.50
2022-11-10T03:06:13.435Z,8.50
2022-11-10T03:11:18.829Z,8.50
2022-11-10T03:16:24.710Z,8.60
2022-11-10T03:21:30.159Z,8.70
2022-11-10T03:26:35.184Z,8.70
2022-11-10T03:31:40.112Z,8.70
2022-11-10T03:36:45.340Z,8.60
2022-11-10T03:41:50.760Z,8.60
2022-11-10T03:46:55.864Z,8.60
2022-11-10T03:52:00.861Z,8.60
2022-11-10T03:57:06.288Z,8.50
2022-11-10T04:02:12.221Z,8.00
2022-11-10T04:07:35.719Z,8.20
2022-11-10T04:12:58.761Z,8.20
2022-11-10T04:18:21.809Z,8.30
2022-11-10T04:23:31.999Z,8.20
2022-11-10T04:28:36.926Z,8.20
2022-11-10T04:33:43.260Z,8.40
2022-11-10T04:38:48.337Z,8.70
2022-11-10T04:43:54.185Z,8.90
2022-11-10T04:49:00.163Z,9.10
2022-11-10T04:54:07.614Z,9.20
2022-11-10T04:59:12.532Z,9.20
2022-11-10T05:04:17.408Z,9.30
2022-11-10T05:09:22.302Z,9.30
2022-11-10T05:14:27.281Z,9.30
2022-11-10T05:19:32.465Z,9.40
2022-11-10T05:24:37.305Z,9.50
2022-11-10T05:29:42.758Z,9.60
2022-11-10T05:34:48.389Z,9.70
2022-11-10T05:39:53.449Z,9.70
2022-11-10T05:44:58.353Z,9.60
2022-11-10T05:50:06.749Z,9.60
2022-11-10T05:55:14.273Z,9.30
2022-11-10T06:00:23.161Z,9.30
2022-11-10T06:05:31.531Z,9.20
2022-11-10T06:10:37.594Z,9.30
2022-11-10T06:15:49.128Z,9.30
2022-11-10T06:20:50.588Z,9.30
2022-11-10T06:25:55.484Z,9.10
2022-11-10T06:31:00.395Z,8.90
2022-11-10T06:36:05.701Z,8.90
2022-11-10T06:41:12.272Z,8.80
2022-11-10T06:46:17.862Z,8.50
2022-11-10T06:51:23.212Z,8.50
2022-11-10T06:56:28.301Z,8.70
2022-11-10T07:01:33.498Z,8.60
2022-11-10T07:06:38.523Z,8.70
2022-11-10T07:11:43.580Z,8.90
2022-11-10T07:16:49.177Z,8.70
2022-11-10T07:21:54.732Z,8.90
2022-11-10T07:27:00.418Z,9.10
2022-11-10T07:32:06.683Z,9.20
2022-11-10T07:37:12.938Z,9.30
2022-11-10T07:42:17.833Z,9.50
2022-11-10T07:47:25.287Z,9.70
2022-11-10T07:52:31.041Z,9.80
2022-11-10T07:57:37.385Z,10.00
2022-11-10T08:02:42.843Z,10.10
2022-11-10T08:07:48.253Z,10.20
2022-11-10T08:12:58.248Z,10.30
2022-11-10T08:18:05.731Z,10.40
2022-11-10T08:23:10.677Z,10.50
2022-11-10T08:28:18.671Z,10.50
2022-11-10T08:33:24.839Z,10.60
2022-11-10T08:38:31.006Z,10.70
2022-11-10T08:43:36.087Z,10.70
2022-11-10T08:48:41.485Z,10.90
2022-11-10T08:53:47.096Z,11.00
2022-11-10T08:58:53.430Z,11.00
2022-11-10T09:03:59.384Z,11.10
2022-11-10T09:09:05.461Z,11.10
2022-11-10T09:14:13.896Z,11.20
2022-11-10T09:19:20.237Z,11.30
2022-11-10T09:24:31.025Z,11.30
2022-11-10T09:29:32.228Z,11.40
2022-11-10T09:34:37.095Z,11.50
2022-11-10T09:39:42.270Z,11.50
2022-11-10T09:44:51.979Z,11.50
2022-11-10T09:50:02.808Z,11.70
2022-11-10T09:55:22.828Z,11.50
2022-11-10T10:00:30.505Z,11.60
2022-11-10T10:05:41.472Z,11.90
2022-11-10T10:10:52.398Z,12.30
2022-11-10T10:16:12.549Z,12.10
2022-11-10T10:21:42.474Z,12.00
2022-11-10T10:26:50.409Z,12.00
2022-11-10T10:31:57.073Z,12.00
2022-11-10T10:37:02.411Z,12.10
2022-11-10T10:42:16.343Z,12.90
2022-11-10T10:47:23.844Z,12.70
2022-11-10T10:52:29.044Z,12.70
2022-11-10T10:57:34.068Z,13.00
2022-11-10T11:02:39.335Z,13.20
2022-11-10T11:07:59.312Z,13.00
2022-11-10T11:13:23.487Z,13.10
2022-11-10T11:18:31.313Z,13.20
2022-11-10T11:24:00.691Z,13.00
2022-11-10T11:29:23.758Z,13.40
2022-11-10T11:34:43.620Z,13.20
2022-11-10T11:39:54.322Z,13.10
2022-11-10T11:45:20.014Z,13.00
2022-11-10T11:50:43.919Z,12.90
2022-11-10T11:56:07.925Z,13.00
2022-11-10T12:01:31.033Z,12.90
2022-11-10T12:06:58.737Z,13.00
2022-11-10T12:12:21.615Z,13.30
2022-11-10T12:17:53.295Z,13.20
2022-11-10T12:23:16.772Z,13.10
2022-11-10T12:28:30.851Z,13.20
2022-11-10T12:33:41.527Z,13.00
2022-11-10T12:39:08.096Z,12.90
2022-11-10T12:44:19.459Z,12.80
2022-11-10T12:49:36.469Z,12.70
2022-11-10T12:54:43.264Z,12.50
2022-11-10T13:00:03.340Z,12.40
2022-11-10T13:05:15.029Z,12.40
2022-11-10T13:10:25.469Z,12.50
2022-11-10T13:15:43.036Z,12.60
2022-11-10T13:20:56.160Z,12.40
2022-11-10T13:26:05.684Z,12.60
2022-11-10T13:31:31.663Z,12.40
2022-11-10T13:36:51.205Z,12.40
2022-11-10T13:42:05.074Z,12.30
2022-11-10T13:47:13.021Z,12.20
2022-11-10T13:52:29.557Z,12.20
2022-11-10T13:57:40.157Z,12.00
2022-11-10T14:02:55.566Z,12.00
2022-11-10T14:08:13.404Z,12.00
2022-11-10T14:13:22.275Z,11.90
2022-11-10T14:18:52.181Z,11.80
2022-11-10T14:24:18.943Z,11.60
2022-11-10T14:29:42.184Z,11.30
2022-11-10T14:34:54.592Z,11.20
2022-11-10T14:40:02.074Z,11.00
2022-11-10T14:50:31.745Z,10.80
2022-11-10T14:55:38.148Z,10.70
2022-11-10T15:00:45.480Z,10.60
2022-11-10T15:05:50.615Z,10.40
2022-11-10T15:10:57.635Z,10.40
2022-11-10T15:16:25.627Z,10.30
2022-11-10T15:21:33.112Z,10.10
2022-11-10T15:26:40.921Z,10.00
2022-11-10T15:31:46.582Z,9.90
2022-11-10T15:36:55.145Z,9.50
2022-11-10T15:42:04.420Z,9.30
2022-11-10T15:47:12.551Z,9.10
2022-11-10T15:52:24.442Z,8.80
2022-11-10T15:57:31.155Z,8.60
2022-11-10T16:02:39.722Z,8.50
2022-11-10T16:07:46.045Z,8.20
2022-11-10T16:12:53.543Z,7.90
2022-11-10T16:18:00.691Z,7.40
2022-11-10T16:23:05.210Z,7.10
2022-11-10T16:28:14.583Z,7.30
2022-11-10T16:33:21.932Z,7.30
2022-11-10T16:38:30.603Z,6.40
2022-11-10T16:43:37.112Z,6.60
2022-11-10T16:48:45.214Z,6.60
2022-11-10T16:53:52.729Z,6.20
2022-11-10T16:58:58.437Z,5.90
2022-11-10T17:04:06.882Z,5.90
2022-11-10T17:09:22.057Z,6.10
2022-11-10T17:14:28.881Z,6.40
2022-11-10T17:19:34.292Z,6.00
2022-11-10T17:24:40.184Z,6.10
2022-11-10T17:29:47.641Z,6.50
2022-11-10T17:34:52.993Z,6.70
2022-11-10T17:39:58.056Z,6.80
2022-11-10T17:45:04.095Z,6.80
2022-11-10T17:50:09.949Z,7.10
2022-11-10T17:55:21.392Z,7.20
2022-11-10T18:00:27.058Z,7.10
2022-11-10T18:05:32.362Z,7.10
2022-11-10T18:10:39.883Z,7.00
2022-11-10T18:15:46.968Z,6.90
2022-11-10T18:20:52.344Z,6.50
2022-11-10T18:25:59.237Z,6.60
2022-11-10T18:31:09.513Z,6.70
2022-11-10T18:36:15.317Z,6.10
2022-11-10T18:41:38.851Z,5.50
2022-11-10T18:46:45.257Z,5.80
2022-11-10T18:51:52.532Z,6.00
2022-11-10T18:56:59.658Z,6.00
2022-11-10T19:02:04.878Z,5.90
2022-11-10T19:07:10.749Z,5.90
2022-11-10T19:12:16.081Z,5.70
2022-11-10T19:17:22.350Z,5.80
2022-11-10T19:22:28.061Z,5.90
2022-11-10T19:27:35.093Z,5.30
2022-11-10T19:32:40.793Z,5.50
2022-11-10T19:37:48.602Z,5.70
2022-11-10T19:42:53.999Z,5.40
2022-11-10T19:48:00.489Z,5.60
2022-11-10T19:53:06.526Z,5.60
2022-11-10T19:58:12.660Z,5.30
2022-11-10T20:03:18.707Z,5.10
2022-11-10T20:08:24.564Z,5.00
2022-11-10T20:13:31.207Z,5.10
2022-11-10T20:18:40.538Z,5.40
2022-11-10T20:23:45.530Z,5.40
2022-11-10T20:28:50.992Z,5.30
2022-11-10T20:33:57.275Z,5.20
2022-11-10T20:39:02.121Z,5.20
2022-11-10T20:44:07.040Z,5.00
2022-11-10T20:49:13.778Z,4.60
2022-11-10T20:54:19.752Z,4.60
2022-11-10T20:59:25.242Z,5.00
2022-11-10T21:04:31.677Z,5.00
2022-11-10T21:09:38.372Z,5.10
2022-11-10T21:14:44.440Z,5.00
2022-11-10T21:19:50.524Z,4.80
2022-11-10T21:24:56.754Z,5.10
2022-11-10T21:30:03.439Z,5.20
2022-11-10T21:35:09.498Z,5.20
2022-11-10T21:40:15.624Z,5.40
2022-11-10T21:45:20.731Z,5.70
2022-11-10T21:50:25.753Z,5.50
2022-11-10T21:55:30.728Z,5.20
2022-11-10T22:00:36.508Z,4.90
2022-11-10T22:05:42.250Z,5.20
2022-11-10T22:11:04.914Z,5.30
2022-11-10T22:16:39.454Z,5.50
2022-11-10T22:21:47.499Z,5.50
2022-11-10T22:26:53.252Z,5.10
2022-11-10T22:31:58.448Z,5.00
2022-11-10T22:37:03.879Z,4.90
2022-11-10T22:42:29.775Z,4.80
2022-11-10T22:47:53.354Z,4.90
2022-11-10T22:52:58.920Z,4.70
2022-11-10T22:58:05.099Z,4.60
2022-11-10T23:03:10.495Z,4.60
2022-11-10T23:08:15.693Z,4.50
2022-11-10T23:13:20.935Z,4.40
2022-11-10T23:18:26.637Z,4.40
2022-11-10T23:23:36.431Z,4.30
2022-11-10T23:28:41.701Z,4.40
2022-11-10T23:33:48.476Z,3.90
2022-11-10T23:38:53.546Z,3.90
2022-11-10T23:43:58.602Z,4.00
2022-11-10T23:49:04.725Z,4.00
2022-11-10T23:54:09.671Z,3.40
2022-11-10T23:59:14.864Z,3.60
